| time (UTC) | temp F | wind direction | speed knots | gust knots | rain 1hr in | rain 24hr in | rain mn in | humidity % | barometer mb |
| 20260507221401 | 79 | 163 | 1.7 | 3.5 | 0.00 | 0.00 | 0.00 | 84 | 1015.9 |
| 20260507220856 | 79 | 169 | 1.7 | 2.6 | 0.00 | 0.00 | 0.00 | 83 | 1015.7 |
| 20260507220355 | 80 | 39 | 0.9 | 0.9 | 0.00 | 0.00 | 0.00 | 81 | 1015.8 |
| 20260507215851 | 80 | 71 | 0.0 | 0.0 | 0.00 | 0.00 | 0.00 | 81 | 1015.9 |
| 20260507215343 | 80 | 82 | 0.9 | 0.9 | 0.00 | 0.00 | 0.00 | 80 | 1015.7 |
| 20260507214840 | 80 | 82 | 0.0 | 0.0 | 0.00 | 0.00 | 0.00 | 81 | 1015.6 |
| 20260507214338 | 80 | 105 | 0.9 | 0.9 | 0.00 | 0.00 | 0.00 | 81 | 1015.5 |
| 20260507213837 | 80 | 86 | 0.0 | 0.0 | 0.00 | 0.00 | 0.00 | 80 | 1015.2 |
| 20260507213335 | 80 | 44 | 0.9 | 0.9 | 0.00 | 0.00 | 0.00 | 80 | 1015.4 |
| 20260507212831 | 81 | 218 | 1.7 | 1.7 | 0.00 | 0.00 | 0.00 | 79 | 1015.3 |
| 20260507212327 | 81 | 149 | 0.9 | 0.9 | 0.00 | 0.00 | 0.00 | 79 | 1015.3 |
| 20260507211824 | 82 | 346 | 1.7 | 1.7 | 0.00 | 0.00 | 0.00 | 77 | 1015.1 |
| 20260507211321 | 82 | 79 | 0.0 | 0.0 | 0.00 | 0.00 | 0.00 | 77 | 1015.5 |
| 20260507210818 | 82 | 146 | 0.9 | 0.9 | 0.00 | 0.00 | 0.00 | 78 | 1015.4 |
| 20260507210315 | 81 | 34 | 0.9 | 0.9 | 0.00 | 0.00 | 0.00 | 79 | 1015.2 |
| 20260507205811 | 81 | 3 | 1.7 | 2.6 | 0.00 | 0.00 | 0.00 | 80 | 1015.2 |
| 20260507205308 | 81 | 189 | 0.9 | 1.7 | 0.00 | 0.00 | 0.00 | 80 | 1015.2 |
| 20260507204804 | 81 | 205 | 3.5 | 3.5 | 0.00 | 0.00 | 0.00 | 80 | 1015.3 |
| 20260507204302 | 81 | 95 | 0.0 | 0.0 | 0.00 | 0.00 | 0.00 | 79 | 1015.3 |
| 20260507203759 | 82 | 20 | 1.7 | 1.7 | 0.00 | 0.00 | 0.00 | 77 | 1014.9 |
| 20260507203257 | 83 | 88 | 0.9 | 1.7 | 0.00 | 0.00 | 0.00 | 76 | 1015.1 |
| 20260507202753 | 84 | 27 | 0.0 | 0.9 | 0.00 | 0.00 | 0.00 | 74 | 1015.1 |
| 20260507202249 | 86 | 332 | 1.7 | 2.6 | 0.00 | 0.00 | 0.00 | 70 | 1015.1 |
| 20260507201744 | 84 | 54 | 0.0 | 0.9 | 0.00 | 0.00 | 0.00 | 73 | 1015.1 |
| 20260507201241 | 84 | 88 | 0.0 | 0.9 | 0.00 | 0.00 | 0.00 | 73 | 1015.0 |
| 20260507200737 | 84 | 114 | 0.0 | 0.0 | 0.00 | 0.00 | 0.00 | 74 | 1015.1 |
| 20260507200233 | 84 | 230 | 2.6 | 2.6 | 0.00 | 0.00 | 0.00 | 74 | 1015.3 |
| 20260507195730 | 83 | 84 | 0.0 | 0.9 | 0.00 | 0.00 | 0.00 | 74 | 1015.3 |
| 20260507195227 | 84 | 7 | 2.6 | 3.5 | 0.00 | 0.00 | 0.00 | 74 | 1015.1 |
| 20260507194724 | 85 | 111 | 0.9 | 1.7 | 0.00 | 0.00 | 0.00 | 73 | 1015.3 |
| 20260507194220 | 86 | 224 | 1.7 | 1.7 | 0.00 | 0.00 | 0.00 | 70 | 1015.3 |
| 20260507193717 | 85 | 177 | 0.9 | 1.7 | 0.00 | 0.00 | 0.00 | 73 | 1015.2 |
| 20260507193214 | 83 | 96 | 0.0 | 0.9 | 0.00 | 0.00 | 0.00 | 76 | 1015.3 |
| 20260507192710 | 82 | 104 | 0.9 | 1.7 | 0.00 | 0.00 | 0.00 | 78 | 1015.3 |
| 20260507192207 | 82 | 224 | 1.7 | 2.6 | 0.00 | 0.00 | 0.00 | 77 | 1015.4 |
| 20260507191702 | 83 | 166 | 0.9 | 1.7 | 0.00 | 0.00 | 0.00 | 77 | 1015.6 |
| 20260507191200 | 83 | 152 | 0.9 | 0.9 | 0.00 | 0.00 | 0.00 | 76 | 1015.4 |
| 20260507190657 | 84 | 14 | 0.9 | 1.7 | 0.00 | 0.00 | 0.00 | 74 | 1015.5 |
| 20260507190155 | 84 | 328 | 2.6 | 2.6 | 0.00 | 0.00 | 0.00 | 73 | 1015.6 |
| 20260507185653 | 85 | 322 | 3.5 | 5.2 | 0.00 | 0.00 | 0.00 | 72 | 1015.5 |
| 20260507185150 | 86 | 42 | 1.7 | 3.5 | 0.00 | 0.00 | 0.00 | 70 | 1015.5 |
| 20260507184647 | 85 | 22 | 0.9 | 0.9 | 0.00 | 0.00 | 0.00 | 73 | 1015.6 |
| 20260507184145 | 86 | 333 | 1.7 | 1.7 | 0.00 | 0.00 | 0.00 | 71 | 1015.7 |
| 20260507183641 | 86 | 20 | 1.7 | 2.6 | 0.00 | 0.00 | 0.00 | 71 | 1015.6 |
| 20260507183139 | 86 | 190 | 0.0 | 0.9 | 0.00 | 0.00 | 0.00 | 71 | 1015.5 |
| 20260507182635 | 86 | 115 | 0.0 | 0.0 | 0.00 | 0.00 | 0.00 | 72 | 1015.8 |
| 20260507182131 | 88 | 95 | 0.9 | 1.7 | 0.00 | 0.00 | 0.00 | 67 | 1015.6 |
| 20260507181628 | 87 | 353 | 0.9 | 1.7 | 0.00 | 0.00 | 0.00 | 67 | 1015.9 |
| 20260507181124 | 87 | 25 | 0.9 | 0.9 | 0.00 | 0.00 | 0.00 | 64 | 1015.8 |
| 20260507180620 | 88 | 26 | 0.9 | 2.6 | 0.00 | 0.00 | 0.00 | 60 | 1015.8 |
| 20260507180118 | 87 | 165 | 1.7 | 2.6 | 0.00 | 0.00 | 0.00 | 63 | 1015.9 |
| 20260507175613 | 87 | 147 | 1.7 | 2.6 | 0.00 | 0.00 | 0.00 | 61 | 1016.0 |
| 20260507175111 | 86 | 42 | 0.9 | 0.9 | 0.00 | 0.00 | 0.00 | 65 | 1015.9 |
| 20260507174608 | 88 | 46 | 1.7 | 1.7 | 0.00 | 0.00 | 0.00 | 65 | 1016.1 |
| 20260507174106 | 89 | 258 | 2.6 | 3.5 | 0.00 | 0.00 | 0.00 | 65 | 1016.0 |
| 20260507173603 | 87 | 138 | 0.0 | 0.9 | 0.00 | 0.00 | 0.00 | 68 | 1016.2 |
| 20260507173100 | 88 | 215 | 1.7 | 2.6 | 0.00 | 0.00 | 0.00 | 66 | 1016.2 |
| 20260507172555 | 87 | 159 | 2.6 | 3.5 | 0.00 | 0.00 | 0.00 | 68 | 1016.3 |
| 20260507172053 | 87 | 54 | 0.0 | 0.0 | 0.00 | 0.00 | 0.00 | 68 | 1016.4 |
| 20260507171548 | 86 | 118 | 0.0 | 0.9 | 0.00 | 0.00 | 0.00 | 72 | 1016.7 |
| 20260507171046 | 86 | 97 | 2.6 | 3.5 | 0.00 | 0.00 | 0.00 | 67 | 1016.8 |
| 20260507170542 | 88 | 87 | 1.7 | 1.7 | 0.00 | 0.00 | 0.00 | 65 | 1016.8 |
| 20260507170039 | 88 | 104 | 1.7 | 2.6 | 0.00 | 0.00 | 0.00 | 64 | 1017.0 |
| 20260507165535 | 88 | 132 | 3.5 | 6.1 | 0.00 | 0.00 | 0.00 | 62 | 1016.9 |
| 20260507165032 | 90 | 180 | 2.6 | 2.6 | 0.00 | 0.00 | 0.00 | 62 | 1016.9 |
| 20260507164528 | 89 | 1 | 1.7 | 1.7 | 0.00 | 0.00 | 0.00 | 63 | 1017.0 |
| 20260507164025 | 89 | 21 | 1.7 | 1.7 | 0.00 | 0.00 | 0.00 | 61 | 1017.1 |
| 20260507163522 | 89 | 58 | 1.7 | 1.7 | 0.00 | 0.00 | 0.00 | 61 | 1017.3 |
| 20260507163021 | 87 | 261 | 1.7 | 1.7 | 0.00 | 0.00 | 0.00 | 67 | 1017.3 |
| 20260507162520 | 89 | 115 | 3.5 | 3.5 | 0.00 | 0.00 | 0.00 | 62 | 1017.3 |
| 20260507162018 | 88 | 28 | 0.0 | 0.9 | 0.00 | 0.00 | 0.00 | 65 | 1017.4 |
| 20260507161514 | 86 | 318 | 0.9 | 1.7 | 0.00 | 0.00 | 0.00 | 70 | 1017.5 |
| 20260507161011 | 86 | 80 | 0.0 | 0.9 | 0.00 | 0.00 | 0.00 | 70 | 1017.7 |
| 20260507160507 | 86 | 32 | 1.7 | 1.7 | 0.00 | 0.00 | 0.00 | 67 | 1017.6 |
| 20260507160003 | 87 | 101 | 1.7 | 2.6 | 0.00 | 0.00 | 0.00 | 65 | 1017.7 |
| 20260507155459 | 86 | 158 | 1.7 | 1.7 | 0.00 | 0.00 | 0.00 | 71 | 1017.7 |
| 20260507154956 | 86 | 130 | 1.7 | 2.6 | 0.00 | 0.00 | 0.00 | 69 | 1017.7 |
| 20260507154453 | 86 | 118 | 0.0 | 0.9 | 0.00 | 0.00 | 0.00 | 69 | 1017.8 |
| 20260507153950 | 86 | 122 | 0.0 | 0.9 | 0.00 | 0.00 | 0.00 | 67 | 1017.8 |
| 20260507153447 | 87 | 126 | 0.9 | 1.7 | 0.00 | 0.00 | 0.00 | 65 | 1017.8 |
| 20260507152943 | 86 | 61 | 0.0 | 0.9 | 0.00 | 0.00 | 0.00 | 68 | 1017.9 |
| 20260507152439 | 86 | 211 | 1.7 | 3.5 | 0.00 | 0.00 | 0.00 | 69 | 1017.7 |
| 20260507151935 | 86 | 130 | 2.6 | 3.5 | 0.00 | 0.00 | 0.00 | 67 | 1018.1 |
| 20260507151432 | 85 | 150 | 1.7 | 2.6 | 0.00 | 0.00 | 0.00 | 68 | 1017.8 |
| 20260507150929 | 85 | 87 | 0.9 | 1.7 | 0.00 | 0.00 | 0.00 | 69 | 1017.8 |
| 20260507150426 | 86 | 163 | 0.9 | 1.7 | 0.00 | 0.00 | 0.00 | 70 | 1018.0 |
| 20260507145922 | 85 | 39 | 1.7 | 1.7 | 0.00 | 0.00 | 0.00 | 71 | 1018.1 |
| 20260507145417 | 85 | 167 | 2.6 | 2.6 | 0.00 | 0.00 | 0.00 | 71 | 1018.2 |
| 20260507144915 | 85 | 98 | 1.7 | 2.6 | 0.00 | 0.00 | 0.00 | 70 | 1018.0 |
| 20260507144412 | 85 | 147 | 0.9 | 1.7 | 0.00 | 0.00 | 0.00 | 71 | 1018.3 |
| 20260507143908 | 85 | 128 | 0.9 | 0.9 | 0.00 | 0.00 | 0.00 | 72 | 1018.2 |
| 20260507143406 | 84 | 101 | 0.9 | 0.9 | 0.00 | 0.00 | 0.00 | 72 | 1018.3 |
| 20260507142902 | 85 | 199 | 0.0 | 0.9 | 0.00 | 0.00 | 0.00 | 70 | 1018.2 |
| 20260507142358 | 85 | 19 | 1.7 | 1.7 | 0.00 | 0.00 | 0.00 | 70 | 1018.3 |
| 20260507141856 | 85 | 91 | 1.7 | 1.7 | 0.00 | 0.00 | 0.00 | 70 | 1018.4 |
| 20260507141352 | 84 | 86 | 0.0 | 0.0 | 0.00 | 0.00 | 0.00 | 76 | 1018.3 |
| 20260507140848 | 84 | 66 | 0.9 | 0.9 | 0.00 | 0.00 | 0.00 | 73 | 1018.4 |
| 20260507140345 | 83 | 121 | 0.0 | 0.9 | 0.00 | 0.00 | 0.00 | 74 | 1018.7 |
| 20260507135843 | 83 | 103 | 0.9 | 1.7 | 0.00 | 0.00 | 0.00 | 74 | 1018.6 |
| 20260507135340 | 83 | 53 | 0.9 | 0.9 | 0.00 | 0.00 | 0.00 | 74 | 1018.4 |
| 20260507134837 | 84 | 179 | 2.6 | 3.5 | 0.00 | 0.00 | 0.00 | 73 | 1018.6 |
| 20260507134333 | 83 | 90 | 4.3 | 6.1 | 0.00 | 0.00 | 0.00 | 72 | 1018.5 |
| 20260507133829 | 83 | 172 | 1.7 | 2.6 | 0.00 | 0.00 | 0.00 | 75 | 1018.6 |
| 20260507133325 | 80 | 138 | 2.6 | 3.5 | 0.00 | 0.00 | 0.00 | 79 | 1018.4 |
| 20260507132824 | 79 | 103 | 2.6 | 3.5 | 0.00 | 0.00 | 0.00 | 80 | 1018.5 |
| 20260507132319 | 81 | 96 | 1.7 | 2.6 | 0.00 | 0.00 | 0.00 | 78 | 1018.1 |
| 20260507131817 | 81 | 85 | 0.9 | 0.9 | 0.00 | 0.00 | 0.00 | 78 | 1018.2 |
| 20260507131313 | 81 | 68 | 1.7 | 1.7 | 0.00 | 0.00 | 0.00 | 77 | 1018.3 |
| 20260507130810 | 82 | 131 | 2.6 | 3.5 | 0.00 | 0.00 | 0.00 | 77 | 1018.4 |
| 20260507130308 | 80 | 89 | 0.9 | 0.9 | 0.00 | 0.00 | 0.00 | 80 | 1018.1 |
| 20260507125807 | 80 | 86 | 2.6 | 2.6 | 0.00 | 0.00 | 0.00 | 80 | 1018.1 |
| 20260507125306 | 81 | 124 | 1.7 | 2.6 | 0.00 | 0.00 | 0.00 | 79 | 1018.1 |
| 20260507124801 | 80 | 93 | 2.6 | 2.6 | 0.00 | 0.00 | 0.00 | 79 | 1018.1 |
| 20260507124257 | 80 | 122 | 1.7 | 1.7 | 0.00 | 0.00 | 0.00 | 80 | 1018.1 |
| 20260507123755 | 80 | 87 | 2.6 | 3.5 | 0.00 | 0.00 | 0.00 | 79 | 1017.9 |
| 20260507123253 | 79 | 171 | 3.5 | 5.2 | 0.00 | 0.00 | 0.00 | 81 | 1017.9 |
| 20260507122748 | 79 | 138 | 3.5 | 5.2 | 0.00 | 0.00 | 0.00 | 82 | 1018.0 |
| 20260507122244 | 79 | 93 | 3.5 | 3.5 | 0.00 | 0.00 | 0.00 | 82 | 1017.9 |
| 20260507121740 | 79 | 101 | 2.6 | 3.5 | 0.00 | 0.00 | 0.00 | 83 | 1018.0 |
| 20260507121236 | 79 | 111 | 3.5 | 3.5 | 0.00 | 0.00 | 0.00 | 82 | 1017.8 |
| 20260507120732 | 78 | 128 | 4.3 | 5.2 | 0.00 | 0.00 | 0.00 | 83 | 1017.7 |
| 20260507120229 | 78 | 110 | 0.9 | 1.7 | 0.00 | 0.00 | 0.00 | 84 | 1017.5 |
| 20260507115725 | 78 | 122 | 6.1 | 7.0 | 0.00 | 0.00 | 0.00 | 83 | 1017.5 |
| 20260507115221 | 78 | 80 | 3.5 | 5.2 | 0.00 | 0.00 | 0.00 | 83 | 1017.5 |
| 20260507114717 | 78 | 128 | 1.7 | 2.6 | 0.00 | 0.00 | 0.00 | 85 | 1017.5 |
| 20260507114215 | 77 | 130 | 3.5 | 6.1 | 0.00 | 0.00 | 0.00 | 85 | 1017.5 |
| 20260507113712 | 77 | 89 | 1.7 | 2.6 | 0.00 | 0.00 | 0.00 | 85 | 1017.4 |
| 20260507113209 | 77 | 102 | 4.3 | 5.2 | 0.00 | 0.00 | 0.00 | 85 | 1017.3 |
| 20260507112706 | 77 | 105 | 3.5 | 5.2 | 0.00 | 0.00 | 0.00 | 86 | 1017.2 |
| 20260507112203 | 77 | 100 | 3.5 | 5.2 | 0.00 | 0.00 | 0.00 | 85 | 1017.4 |
| 20260507111700 | 76 | 136 | 1.7 | 1.7 | 0.00 | 0.00 | 0.00 | 87 | 1017.4 |
| 20260507111157 | 75 | 141 | 2.6 | 2.6 | 0.00 | 0.00 | 0.00 | 88 | 1017.2 |
| 20260507110653 | 75 | 85 | 1.7 | 2.6 | 0.00 | 0.00 | 0.00 | 89 | 1017.3 |
| 20260507110150 | 75 | 111 | 1.7 | 2.6 | 0.00 | 0.00 | 0.00 | 89 | 1017.2 |
| 20260507105647 | 75 | 97 | 0.9 | 0.9 | 0.00 | 0.00 | 0.00 | 90 | 1017.5 |
| 20260507105142 | 74 | 92 | 1.7 | 1.7 | 0.00 | 0.00 | 0.00 | 90 | 1017.4 |
| 20260507104640 | 74 | 94 | 0.9 | 0.9 | 0.00 | 0.00 | 0.00 | 90 | 1017.4 |
| 20260507104136 | 74 | 115 | 2.6 | 3.5 | 0.00 | 0.00 | 0.00 | 90 | 1017.2 |
| 20260507103632 | 74 | 84 | 0.9 | 0.9 | 0.00 | 0.00 | 0.00 | 90 | 1017.3 |
| 20260507103130 | 74 | 87 | 0.9 | 1.7 | 0.00 | 0.00 | 0.00 | 91 | 1017.2 |
| 20260507102626 | 73 | 80 | 1.7 | 1.7 | 0.00 | 0.00 | 0.00 | 91 | 1017.1 |
| 20260507102122 | 73 | 90 | 0.0 | 0.0 | 0.00 | 0.00 | 0.00 | 91 | 1017.0 |
| 20260507101618 | 73 | 82 | 0.9 | 0.9 | 0.00 | 0.00 | 0.00 | 91 | 1017.0 |
| 20260507101114 | 73 | 88 | 0.0 | 0.9 | 0.00 | 0.00 | 0.00 | 91 | 1016.9 |
| 20260507100612 | 73 | 54 | 0.0 | 0.0 | 0.00 | 0.00 | 0.00 | 91 | 1016.5 |
| 20260507100110 | 73 | 56 | 0.9 | 0.9 | 0.00 | 0.00 | 0.00 | 91 | 1016.7 |
| 20260507095607 | 73 | 60 | 0.9 | 0.9 | 0.00 | 0.00 | 0.00 | 91 | 1016.4 |
| 20260507095104 | 73 | 73 | 0.9 | 0.9 | 0.00 | 0.00 | 0.00 | 91 | 1016.8 |
| 20260507094600 | 73 | 93 | 0.0 | 0.9 | 0.00 | 0.00 | 0.00 | 92 | 1016.8 |
| 20260507094057 | 73 | 83 | 0.9 | 0.9 | 0.00 | 0.00 | 0.00 | 92 | 1016.4 |
| 20260507093554 | 73 | 80 | 0.0 | 0.0 | 0.00 | 0.00 | 0.00 | 91 | 1016.8 |
| 20260507093053 | 73 | 92 | 0.9 | 0.9 | 0.00 | 0.00 | 0.00 | 91 | 1016.8 |
| 20260507092549 | 73 | 87 | 0.0 | 0.0 | 0.00 | 0.00 | 0.00 | 91 | 1016.7 |
| 20260507092046 | 73 | 158 | 1.7 | 1.7 | 0.00 | 0.00 | 0.00 | 91 | 1016.5 |
| 20260507091543 | 73 | 90 | 1.7 | 2.6 | 0.00 | 0.00 | 0.00 | 91 | 1016.9 |
| 20260507091039 | 74 | 85 | 0.0 | 0.0 | 0.00 | 0.00 | 0.00 | 91 | 1016.5 |
| 20260507090534 | 74 | 122 | 0.9 | 0.9 | 0.00 | 0.00 | 0.00 | 90 | 1017.0 |
| 20260507090032 | 74 | 79 | 1.7 | 1.7 | 0.00 | 0.00 | 0.00 | 91 | 1016.8 |
| 20260507085529 | 74 | 104 | 0.9 | 1.7 | 0.00 | 0.00 | 0.00 | 91 | 1017.0 |
| 20260507085025 | 74 | 85 | 1.7 | 1.7 | 0.00 | 0.00 | 0.00 | 91 | 1017.1 |
| 20260507084522 | 74 | 86 | 3.5 | 3.5 | 0.00 | 0.00 | 0.00 | 91 | 1017.0 |
| 20260507084019 | 74 | 98 | 0.9 | 0.9 | 0.00 | 0.00 | 0.00 | 91 | 1017.0 |
| 20260507083515 | 74 | 100 | 0.0 | 0.0 | 0.00 | 0.00 | 0.00 | 90 | 1016.8 |
| 20260507083013 | 74 | 85 | 1.7 | 1.7 | 0.00 | 0.00 | 0.00 | 90 | 1016.9 |
| 20260507082509 | 74 | 82 | 0.9 | 1.7 | 0.00 | 0.00 | 0.00 | 90 | 1016.9 |
| 20260507082005 | 74 | 104 | 2.6 | 3.5 | 0.00 | 0.00 | 0.00 | 91 | 1016.9 |
| 20260507081501 | 74 | 90 | 0.9 | 0.9 | 0.00 | 0.00 | 0.00 | 91 | 1016.9 |
| 20260507080958 | 74 | 50 | 0.9 | 0.9 | 0.00 | 0.00 | 0.00 | 90 | 1016.8 |
| 20260507080454 | 74 | 82 | 1.7 | 2.6 | 0.00 | 0.00 | 0.00 | 91 | 1016.8 |
| 20260507075949 | 74 | 86 | 3.5 | 3.5 | 0.00 | 0.00 | 0.00 | 91 | 1016.7 |
| 20260507075446 | 74 | 105 | 2.6 | 2.6 | 0.00 | 0.00 | 0.00 | 91 | 1016.7 |
| 20260507074943 | 74 | 97 | 0.9 | 0.9 | 0.00 | 0.00 | 0.00 | 91 | 1016.9 |
| 20260507074440 | 74 | 101 | 2.6 | 3.5 | 0.00 | 0.00 | 0.00 | 91 | 1016.8 |
| 20260507073938 | 74 | 114 | 1.7 | 1.7 | 0.00 | 0.00 | 0.00 | 91 | 1016.9 |
| 20260507073434 | 74 | 86 | 2.6 | 2.6 | 0.00 | 0.00 | 0.00 | 91 | 1016.8 |
| 20260507072930 | 74 | 87 | 3.5 | 3.5 | 0.00 | 0.00 | 0.00 | 90 | 1016.9 |
| 20260507072428 | 74 | 114 | 0.9 | 0.9 | 0.00 | 0.00 | 0.00 | 90 | 1017.0 |
| 20260507071925 | 74 | 119 | 1.7 | 1.7 | 0.00 | 0.00 | 0.00 | 90 | 1016.9 |
| 20260507071422 | 74 | 108 | 1.7 | 1.7 | 0.00 | 0.00 | 0.00 | 90 | 1016.9 |
| 20260507070918 | 74 | 106 | 1.7 | 1.7 | 0.00 | 0.00 | 0.00 | 90 | 1017.0 |
| 20260507070416 | 75 | 113 | 0.9 | 1.7 | 0.00 | 0.00 | 0.00 | 89 | 1017.1 |
| 20260507065913 | 75 | 92 | 2.6 | 3.5 | 0.00 | 0.00 | 0.00 | 89 | 1017.1 |
| 20260507065410 | 75 | 86 | 0.0 | 0.9 | 0.00 | 0.00 | 0.00 | 89 | 1017.1 |
| 20260507064907 | 75 | 103 | 1.7 | 2.6 | 0.00 | 0.00 | 0.00 | 89 | 1017.3 |
| 20260507064405 | 75 | 112 | 1.7 | 1.7 | 0.00 | 0.00 | 0.00 | 89 | 1017.3 |
| 20260507063902 | 74 | 112 | 0.0 | 0.0 | 0.00 | 0.00 | 0.00 | 90 | 1017.5 |
| 20260507063359 | 74 | 106 | 0.0 | 0.0 | 0.00 | 0.00 | 0.00 | 90 | 1017.4 |
| 20260507062856 | 74 | 87 | 0.0 | 0.0 | 0.00 | 0.00 | 0.00 | 90 | 1017.3 |
| 20260507062353 | 74 | 93 | 0.0 | 0.0 | 0.00 | 0.00 | 0.00 | 90 | 1017.5 |
| 20260507061851 | 74 | 116 | 0.0 | 0.0 | 0.00 | 0.00 | 0.00 | 90 | 1017.4 |
| 20260507061348 | 74 | 113 | 0.0 | 0.0 | 0.00 | 0.00 | 0.00 | 90 | 1017.5 |
| 20260507060847 | 74 | 87 | 0.0 | 0.0 | 0.00 | 0.00 | 0.00 | 90 | 1017.4 |
| 20260507060343 | 74 | 87 | 0.0 | 0.0 | 0.00 | 0.00 | 0.00 | 89 | 1017.6 |
| 20260507055840 | 74 | 103 | 0.0 | 0.0 | 0.00 | 0.00 | 0.00 | 89 | 1017.6 |
| 20260507055335 | 74 | 90 | 0.0 | 0.0 | 0.00 | 0.00 | 0.00 | 90 | 1017.7 |
| 20260507054832 | 74 | 74 | 0.0 | 0.0 | 0.00 | 0.00 | 0.00 | 90 | 1017.7 |
| 20260507054328 | 74 | 80 | 0.0 | 0.0 | 0.00 | 0.00 | 0.00 | 90 | 1017.9 |
| 20260507053826 | 74 | 96 | 0.0 | 0.0 | 0.00 | 0.00 | 0.00 | 90 | 1017.9 |
| 20260507053323 | 74 | 129 | 0.0 | 0.0 | 0.00 | 0.00 | 0.00 | 90 | 1018.0 |
| 20260507052822 | 74 | 77 | 0.0 | 0.0 | 0.00 | 0.00 | 0.00 | 89 | 1018.0 |
| 20260507052318 | 74 | 79 | 0.0 | 0.0 | 0.00 | 0.00 | 0.00 | 89 | 1018.1 |
| 20260507051816 | 75 | 71 | 0.0 | 0.0 | 0.00 | 0.00 | 0.00 | 88 | 1018.2 |
| 20260507051313 | 75 | 78 | 0.0 | 0.0 | 0.00 | 0.00 | 0.00 | 88 | 1018.1 |
| 20260507050810 | 75 | 72 | 0.0 | 0.0 | 0.00 | 0.00 | 0.00 | 88 | 1018.3 |
| 20260507050306 | 75 | 93 | 2.6 | 2.6 | 0.00 | 0.00 | 0.00 | 88 | 1018.1 |
| 20260507045803 | 75 | 95 | 1.7 | 2.6 | 0.00 | 0.00 | 0.00 | 88 | 1018.5 |
| 20260507045300 | 75 | 85 | 0.0 | 0.0 | 0.00 | 0.00 | 0.00 | 88 | 1018.5 |
| 20260507044757 | 75 | 101 | 0.9 | 0.9 | 0.00 | 0.00 | 0.00 | 89 | 1018.7 |
| 20260507044253 | 75 | 126 | 3.5 | 3.5 | 0.00 | 0.00 | 0.00 | 89 | 1018.5 |
| 20260507043749 | 75 | 94 | 1.7 | 2.6 | 0.00 | 0.00 | 0.00 | 88 | 1018.8 |
| 20260507043246 | 75 | 88 | 0.9 | 0.9 | 0.00 | 0.00 | 0.00 | 88 | 1018.9 |
| 20260507042742 | 75 | 94 | 0.9 | 1.7 | 0.00 | 0.00 | 0.00 | 88 | 1018.9 |
| 20260507042238 | 75 | 97 | 2.6 | 3.5 | 0.00 | 0.00 | 0.00 | 87 | 1019.1 |
| 20260507041736 | 75 | 113 | 2.6 | 2.6 | 0.00 | 0.00 | 0.00 | 87 | 1019.1 |
| 20260507041232 | 75 | 115 | 1.7 | 2.6 | 0.00 | 0.00 | 0.00 | 87 | 1019.1 |
| 20260507040729 | 75 | 68 | 0.0 | 0.0 | 0.00 | 0.00 | 0.00 | 86 | 1019.1 |
| 20260507040225 | 75 | 93 | 1.7 | 1.7 | 0.00 | 0.00 | 0.00 | 86 | 1019.0 |
| 20260507035721 | 75 | 94 | 1.7 | 1.7 | 0.00 | 0.00 | 0.00 | 86 | 1019.1 |
| 20260507035217 | 75 | 94 | 1.7 | 1.7 | 0.00 | 0.00 | 0.00 | 86 | 1019.0 |
| 20260507034714 | 75 | 93 | 0.9 | 0.9 | 0.00 | 0.00 | 0.00 | 85 | 1019.1 |
| 20260507034211 | 75 | 88 | 0.9 | 0.9 | 0.00 | 0.00 | 0.00 | 85 | 1019.1 |
| 20260507033710 | 75 | 106 | 0.9 | 1.7 | 0.00 | 0.00 | 0.00 | 85 | 1019.2 |
| 20260507033207 | 75 | 54 | 0.9 | 0.9 | 0.00 | 0.00 | 0.00 | 84 | 1019.3 |
| 20260507032704 | 75 | 111 | 1.7 | 1.7 | 0.00 | 0.00 | 0.00 | 84 | 1019.3 |
| 20260507032159 | 75 | 84 | 1.7 | 1.7 | 0.00 | 0.00 | 0.00 | 84 | 1018.9 |
| 20260507031657 | 75 | 52 | 0.9 | 1.7 | 0.00 | 0.00 | 0.00 | 83 | 1019.1 |
| 20260507031153 | 75 | 86 | 0.0 | 0.9 | 0.00 | 0.00 | 0.00 | 83 | 1019.1 |
| 20260507030650 | 76 | 88 | 1.7 | 2.6 | 0.00 | 0.00 | 0.00 | 83 | 1019.3 |
| 20260507030148 | 76 | 96 | 1.7 | 1.7 | 0.00 | 0.00 | 0.00 | 82 | 1019.2 |
| 20260507025645 | 76 | 97 | 1.7 | 1.7 | 0.00 | 0.00 | 0.00 | 82 | 1019.3 |
| 20260507025142 | 75 | 94 | 0.9 | 1.7 | 0.00 | 0.00 | 0.00 | 82 | 1019.4 |
| 20260507024640 | 75 | 96 | 1.7 | 1.7 | 0.00 | 0.00 | 0.00 | 82 | 1019.4 |
| 20260507024137 | 75 | 101 | 0.9 | 1.7 | 0.00 | 0.00 | 0.00 | 82 | 1019.2 |
| 20260507023632 | 75 | 98 | 0.0 | 0.0 | 0.00 | 0.00 | 0.00 | 81 | 1019.4 |
| 20260507023130 | 75 | 66 | 0.0 | 0.9 | 0.00 | 0.00 | 0.00 | 81 | 1019.2 |
| 20260507022627 | 76 | 86 | 0.0 | 0.0 | 0.00 | 0.00 | 0.00 | 81 | 1019.2 |
| 20260507022122 | 76 | 91 | 0.9 | 0.9 | 0.00 | 0.00 | 0.00 | 80 | 1019.1 |
| 20260507021619 | 76 | 89 | 1.7 | 2.6 | 0.00 | 0.00 | 0.00 | 79 | 1018.9 |
| 20260507021115 | 76 | 95 | 1.7 | 2.6 | 0.00 | 0.00 | 0.00 | 79 | 1019.1 |
| 20260507020613 | 76 | 95 | 3.5 | 3.5 | 0.00 | 0.00 | 0.00 | 79 | 1019.0 |
| 20260507020109 | 76 | 117 | 1.7 | 2.6 | 0.00 | 0.00 | 0.00 | 80 | 1018.8 |
| 20260507015607 | 76 | 135 | 1.7 | 1.7 | 0.00 | 0.00 | 0.00 | 80 | 1018.8 |
| 20260507015104 | 76 | 154 | 3.5 | 5.2 | 0.00 | 0.00 | 0.00 | 80 | 1018.9 |
| 20260507014601 | 76 | 143 | 1.7 | 2.6 | 0.00 | 0.00 | 0.00 | 80 | 1018.9 |
| 20260507014056 | 76 | 123 | 3.5 | 3.5 | 0.00 | 0.00 | 0.00 | 80 | 1018.9 |
| 20260507013553 | 76 | 125 | 1.7 | 1.7 | 0.00 | 0.00 | 0.00 | 80 | 1018.8 |
| 20260507013051 | 76 | 159 | 2.6 | 2.6 | 0.00 | 0.00 | 0.00 | 80 | 1018.8 |
| 20260507012548 | 76 | 110 | 1.7 | 1.7 | 0.00 | 0.00 | 0.00 | 79 | 1018.7 |
| 20260507012044 | 77 | 139 | 0.9 | 0.9 | 0.00 | 0.00 | 0.00 | 79 | 1018.7 |
| 20260507011542 | 77 | 105 | 0.9 | 0.9 | 0.00 | 0.00 | 0.00 | 79 | 1018.6 |
| 20260507011038 | 77 | 135 | 1.7 | 1.7 | 0.00 | 0.00 | 0.00 | 79 | 1018.7 |
| 20260507010532 | 77 | 92 | 1.7 | 1.7 | 0.00 | 0.00 | 0.00 | 79 | 1018.6 |
| 20260507010029 | 77 | 139 | 1.7 | 3.5 | 0.00 | 0.00 | 0.00 | 79 | 1018.5 |
| 20260507005526 | 77 | 87 | 3.5 | 3.5 | 0.00 | 0.00 | 0.00 | 79 | 1018.5 |
| 20260507005023 | 77 | 103 | 2.6 | 2.6 | 0.00 | 0.00 | 0.00 | 79 | 1018.3 |
| 20260507004520 | 77 | 95 | 1.7 | 3.5 | 0.00 | 0.00 | 0.00 | 78 | 1018.6 |
| 20260507004017 | 77 | 129 | 2.6 | 2.6 | 0.00 | 0.00 | 0.00 | 78 | 1018.4 |
| 20260507003512 | 77 | 94 | 1.7 | 1.7 | 0.00 | 0.00 | 0.00 | 78 | 1018.2 |
| 20260507003008 | 77 | 143 | 2.6 | 2.6 | 0.00 | 0.00 | 0.00 | 77 | 1018.2 |
| 20260507002504 | 77 | 96 | 1.7 | 1.7 | 0.00 | 0.00 | 0.00 | 77 | 1018.2 |
| 20260507002001 | 77 | 134 | 3.5 | 3.5 | 0.00 | 0.00 | 0.00 | 77 | 1018.4 |
| 20260507001457 | 77 | 136 | 1.7 | 2.6 | 0.00 | 0.00 | 0.00 | 77 | 1018.0 |
| 20260507000955 | 77 | 81 | 0.0 | 0.0 | 0.00 | 0.00 | 0.00 | 77 | 1017.9 |
| 20260507000450 | 77 | 78 | 1.7 | 2.6 | 0.00 | 0.00 | 0.00 | 77 | 1017.9 |
| 20260506235946 | 77 | 76 | 0.0 | 0.9 | 0.00 | 0.00 | 0.00 | 77 | 1017.7 |
| 20260506235444 | 77 | 90 | 2.6 | 2.6 | 0.00 | 0.00 | 0.00 | 77 | 1017.7 |
| 20260506234939 | 77 | 119 | 2.6 | 2.6 | 0.00 | 0.00 | 0.00 | 77 | 1017.7 |
| 20260506234437 | 77 | 89 | 0.0 | 0.9 | 0.00 | 0.00 | 0.00 | 77 | 1017.4 |
| 20260506233934 | 77 | 76 | 2.6 | 2.6 | 0.00 | 0.00 | 0.00 | 77 | 1017.5 |
| 20260506233431 | 78 | 88 | 1.7 | 2.6 | 0.00 | 0.00 | 0.00 | 77 | 1017.5 |
| 20260506232927 | 78 | 81 | 0.9 | 0.9 | 0.00 | 0.00 | 0.00 | 77 | 1017.4 |
| 20260506232424 | 78 | 83 | 0.0 | 0.0 | 0.00 | 0.00 | 0.00 | 76 | 1017.5 |
| 20260506231919 | 78 | 79 | 0.0 | 0.0 | 0.00 | 0.00 | 0.00 | 76 | 1017.5 |
| 20260506231417 | 78 | 81 | 0.9 | 1.7 | 0.00 | 0.00 | 0.00 | 75 | 1017.4 |
| 20260506230914 | 79 | 57 | 0.9 | 0.9 | 0.00 | 0.00 | 0.00 | 75 | 1017.2 |
| 20260506230411 | 79 | 103 | 1.7 | 2.6 | 0.00 | 0.00 | 0.00 | 74 | 1017.2 |
| 20260506225907 | 79 | 59 | 3.5 | 3.5 | 0.00 | 0.00 | 0.00 | 74 | 1017.2 |
| 20260506225405 | 80 | 73 | 3.5 | 5.2 | 0.00 | 0.00 | 0.00 | 74 | 1017.0 |
| 20260506224901 | 80 | 107 | 1.7 | 2.6 | 0.00 | 0.00 | 0.00 | 73 | 1016.9 |
| 20260506224359 | 80 | 108 | 4.3 | 6.1 | 0.00 | 0.00 | 0.00 | 73 | 1016.9 |
| 20260506223855 | 81 | 98 | 3.5 | 5.2 | 0.00 | 0.00 | 0.00 | 72 | 1016.9 |
| 20260506223350 | 81 | 98 | 2.6 | 6.1 | 0.00 | 0.00 | 0.00 | 71 | 1016.7 |
| 20260506222848 | 82 | 87 | 2.6 | 2.6 | 0.00 | 0.00 | 0.00 | 67 | 1016.5 |
| 20260506222343 | 82 | 111 | 1.7 | 1.7 | 0.00 | 0.00 | 0.00 | 66 | 1016.5 |
| 20260506221841 | 82 | 68 | 0.0 | 0.0 | 0.00 | 0.00 | 0.00 | 66 | 1016.4 |